createdAt,value
2018-01-04T00:00:40.937Z,33.13
2018-01-04T00:03:08.378Z,36.57
2018-01-04T00:05:35.849Z,54.63
2018-01-04T00:08:03.309Z,44.90
2018-01-04T00:10:30.758Z,37.23
2018-01-04T00:12:58.222Z,40.87
2018-01-04T00:15:25.694Z,39.13
2018-01-04T00:17:53.166Z,42.07
2018-01-04T00:20:20.623Z,34.67
2018-01-04T00:22:48.088Z,40.03
2018-01-04T00:25:15.555Z,45.87
2018-01-04T00:27:43.024Z,41.67
2018-01-04T00:30:10.691Z,47.07
2018-01-04T00:32:38.915Z,35.17
2018-01-04T00:35:06.392Z,50.30
2018-01-04T00:37:33.850Z,33.63
2018-01-04T00:40:01.320Z,46.60
2018-01-04T00:42:28.803Z,40.73
2018-01-04T00:44:57.040Z,35.13
2018-01-04T00:47:24.495Z,38.47
2018-01-04T00:49:51.953Z,35.70
2018-01-04T00:52:19.418Z,64.40
2018-01-04T00:54:46.870Z,41.40
2018-01-04T00:57:14.334Z,37.03
2018-01-04T00:59:41.786Z,54.93
2018-01-04T01:02:09.247Z,47.03
2018-01-04T01:04:36.701Z,43.80
2018-01-04T01:07:04.162Z,42.87
2018-01-04T01:09:31.621Z,39.47
2018-01-04T01:11:59.091Z,53.10
2018-01-04T01:14:27.322Z,53.57
2018-01-04T01:16:54.794Z,58.47
2018-01-04T01:19:22.254Z,40.77
2018-01-04T01:21:49.724Z,49.67
2018-01-04T01:24:17.186Z,47.03
2018-01-04T01:26:45.502Z,59.43
2018-01-04T01:29:12.965Z,52.33
2018-01-04T01:31:40.421Z,45.83
2018-01-04T01:34:07.886Z,45.90
2018-01-04T01:36:35.356Z,52.90
2018-01-04T01:39:02.811Z,50.57
2018-01-04T01:41:30.284Z,56.80
2018-01-04T01:43:57.759Z,45.60
2018-01-04T01:46:25.994Z,59.37
2018-01-04T01:49:05.231Z,43.27
2018-01-04T01:51:32.695Z,56.30
2018-01-04T01:54:00.177Z,44.07
2018-01-04T01:56:27.664Z,43.63
2018-01-04T01:58:55.127Z,42.80
2018-01-04T02:01:22.599Z,56.63
2018-01-04T02:03:50.067Z,54.63
2018-01-04T02:06:17.553Z,51.83
2018-01-04T02:08:45.009Z,45.60
2018-01-04T02:11:12.582Z,37.40
2018-01-04T02:13:40.815Z,45.47
2018-01-04T02:16:08.291Z,47.93
2018-01-04T02:18:47.691Z,38.27
2018-01-04T02:21:40.026Z,68.33
2018-01-04T02:24:20.107Z,53.60
2018-01-04T02:26:59.531Z,63.90
2018-01-04T02:29:38.910Z,44.33
2018-01-04T02:32:19.107Z,51.37
2018-01-04T02:35:12.516Z,43.87
2018-01-04T02:37:51.851Z,62.23
2018-01-04T02:40:31.219Z,73.27
2018-01-04T02:43:10.796Z,58.27
2018-01-04T02:45:58.905Z,43.27
2018-01-04T02:48:27.138Z,39.60
2018-01-04T02:50:54.611Z,60.17
2018-01-04T02:53:22.077Z,71.40
2018-01-04T02:55:50.314Z,50.27
2018-01-04T02:58:17.795Z,65.37
2018-01-04T03:00:45.263Z,41.87
2018-01-04T03:03:12.822Z,47.20
2018-01-04T03:05:41.074Z,47.77
2018-01-04T03:08:08.549Z,52.63
2018-01-04T03:10:36.020Z,56.17
2018-01-04T03:13:04.250Z,48.37
2018-01-04T03:15:31.728Z,74.33
2018-01-04T03:17:59.189Z,61.90
2018-01-04T03:20:26.654Z,49.90
2018-01-04T03:23:00.663Z,53.33
2018-01-04T03:25:34.484Z,46.77
2018-01-04T03:28:08.318Z,54.67
2018-01-04T03:30:41.635Z,44.00
2018-01-04T03:33:15.446Z,43.63
2018-01-04T03:35:48.632Z,52.17
2018-01-04T03:38:21.924Z,51.40
2018-01-04T03:40:55.298Z,61.17
2018-01-04T03:43:28.454Z,67.53
2018-01-04T03:46:02.560Z,57.07
2018-01-04T03:48:30.791Z,47.43
2018-01-04T03:51:04.013Z,40.97
2018-01-04T03:53:37.157Z,42.43
2018-01-04T03:56:10.383Z,49.17
2018-01-04T03:58:43.601Z,50.60
2018-01-04T04:01:16.787Z,41.27
2018-01-04T04:03:45.015Z,41.80
2018-01-04T04:06:18.109Z,56.53
2018-01-04T04:08:45.581Z,70.90
2018-01-04T04:11:13.056Z,55.67
2018-01-04T04:13:40.541Z,46.60
2018-01-04T04:16:08.002Z,42.80
2018-01-04T04:18:36.240Z,61.17
2018-01-04T04:21:03.701Z,45.77
2018-01-04T04:23:31.162Z,44.67
2018-01-04T04:25:58.633Z,52.40
2018-01-04T04:28:26.866Z,56.50
2018-01-04T04:30:55.112Z,51.40
2018-01-04T04:33:22.563Z,53.00
2018-01-04T04:35:50.020Z,61.03
2018-01-04T04:38:17.498Z,66.40
2018-01-04T04:40:44.973Z,53.93
2018-01-04T04:43:12.431Z,55.37
2018-01-04T04:45:39.900Z,40.90
2018-01-04T04:48:07.354Z,52.37
2018-01-04T04:50:34.862Z,64.30
2018-01-04T04:53:02.322Z,57.27
2018-01-04T04:55:29.795Z,74.10
2018-01-04T04:57:57.290Z,50.97
2018-01-04T05:00:24.751Z,70.00
2018-01-04T05:02:53.002Z,69.07
2018-01-04T05:05:20.470Z,46.73
2018-01-04T05:07:47.958Z,54.03
2018-01-04T05:10:16.198Z,64.30
2018-01-04T05:12:44.434Z,72.40
2018-01-04T05:15:11.914Z,63.17
2018-01-04T05:17:39.381Z,77.83
2018-01-04T05:20:06.853Z,55.90
2018-01-04T05:22:34.314Z,60.30
2018-01-04T05:25:01.807Z,56.60
2018-01-04T05:27:29.259Z,62.47
2018-01-04T05:29:56.767Z,65.43
2018-01-04T05:32:24.215Z,72.97
2018-01-04T05:34:51.687Z,57.27
2018-01-04T05:37:19.158Z,67.93
2018-01-04T05:39:46.614Z,67.27
2018-01-04T05:42:14.084Z,60.33
2018-01-04T05:44:42.308Z,59.93
2018-01-04T05:47:09.769Z,51.93
2018-01-04T05:49:37.238Z,52.97
2018-01-04T05:52:04.764Z,59.23
2018-01-04T05:54:32.222Z,50.60
2018-01-04T05:56:59.715Z,57.53
2018-01-04T05:59:27.986Z,60.60
2018-01-04T06:01:55.453Z,54.50
2018-01-04T06:04:22.920Z,78.33
2018-01-04T06:06:50.378Z,56.00
2018-01-04T06:09:18.598Z,49.73
2018-01-04T06:11:46.061Z,51.77
2018-01-04T06:14:13.519Z,49.87
2018-01-04T06:16:40.994Z,49.53
2018-01-04T06:19:08.459Z,52.93
2018-01-04T06:21:35.927Z,65.80
2018-01-04T06:24:03.393Z,57.07
2018-01-04T06:26:30.858Z,45.97
2018-01-04T06:28:59.082Z,44.10
2018-01-04T06:31:26.579Z,49.87
2018-01-04T06:33:54.035Z,65.00
2018-01-04T06:36:21.504Z,64.83
2018-01-04T06:38:49.741Z,61.37
2018-01-04T06:41:17.239Z,58.13
2018-01-04T06:43:45.458Z,35.93
2018-01-04T06:46:12.952Z,42.90
2018-01-04T06:48:40.418Z,42.83
2018-01-04T06:51:07.870Z,48.10
2018-01-04T06:53:35.360Z,48.37
2018-01-04T06:56:02.810Z,48.90
2018-01-04T06:58:30.267Z,65.07
2018-01-04T07:00:57.722Z,49.23
2018-01-04T07:03:25.951Z,50.53
2018-01-04T07:05:53.403Z,47.93
2018-01-04T07:08:20.859Z,51.73
2018-01-04T07:10:48.335Z,50.67
2018-01-04T07:13:15.790Z,47.77
2018-01-04T07:15:43.238Z,37.00
2018-01-04T07:18:10.709Z,48.73
2018-01-04T07:20:38.158Z,52.20
2018-01-04T07:23:05.631Z,46.07
2018-01-04T07:25:33.887Z,40.00
2018-01-04T07:28:01.374Z,42.10
2018-01-04T07:30:28.819Z,38.00
2018-01-04T07:32:57.045Z,53.20
2018-01-04T07:35:24.504Z,46.20
2018-01-04T07:37:51.978Z,46.40
2018-01-04T07:40:20.199Z,35.13
2018-01-04T07:42:47.662Z,70.33
2018-01-04T07:45:15.121Z,52.90
2018-01-04T07:47:42.562Z,66.73
2018-01-04T07:50:10.794Z,48.47
2018-01-04T07:52:38.250Z,36.97
2018-01-04T07:55:05.702Z,48.20
2018-01-04T07:57:33.171Z,52.87
2018-01-04T08:00:00.628Z,45.07
2018-01-04T08:02:29.622Z,47.33
2018-01-04T08:04:57.086Z,54.73
2018-01-04T08:07:24.544Z,57.37
2018-01-04T08:09:51.997Z,43.83
2018-01-04T08:12:19.463Z,44.93
2018-01-04T08:14:46.922Z,64.70
2018-01-04T08:17:14.384Z,52.63
2018-01-04T08:19:41.847Z,44.10
2018-01-04T08:22:10.074Z,46.30
2018-01-04T08:24:37.518Z,48.63
2018-01-04T08:27:05.000Z,42.17
2018-01-04T08:29:32.452Z,45.80
2018-01-04T08:31:59.911Z,53.17
2018-01-04T08:34:27.376Z,40.80
2018-01-04T08:36:54.827Z,57.63
2018-01-04T08:39:22.281Z,43.90
2018-01-04T08:41:49.739Z,47.43
2018-01-04T08:44:17.190Z,34.00
2018-01-04T08:46:44.653Z,54.63
2018-01-04T08:49:12.113Z,43.97
2018-01-04T08:51:39.564Z,39.33
2018-01-04T08:54:07.027Z,34.30
2018-01-04T08:56:34.479Z,36.93
2018-01-04T08:59:01.955Z,40.73
2018-01-04T09:01:29.416Z,42.17
2018-01-04T09:03:56.879Z,35.73
2018-01-04T09:06:24.351Z,50.37
2018-01-04T09:08:51.819Z,32.93
2018-01-04T09:11:20.050Z,26.03
2018-01-04T09:13:47.507Z,50.80
2018-01-04T09:16:14.958Z,31.83
2018-01-04T09:18:42.414Z,42.93
2018-01-04T09:21:09.869Z,34.43
2018-01-04T09:23:37.348Z,45.00
2018-01-04T09:26:05.570Z,39.47
2018-01-04T09:28:33.050Z,44.40
2018-01-04T09:31:00.514Z,48.87
2018-01-04T09:33:27.967Z,45.47
2018-01-04T09:35:55.414Z,34.03
2018-01-04T09:38:22.869Z,25.33
2018-01-04T09:40:50.345Z,39.07
2018-01-04T09:43:17.807Z,27.30
2018-01-04T09:45:45.266Z,25.70
2018-01-04T09:48:12.733Z,33.00
2018-01-04T09:50:40.179Z,33.17
2018-01-04T09:53:07.642Z,30.23
2018-01-04T09:55:35.095Z,33.70
2018-01-04T09:58:02.555Z,32.73
2018-01-04T10:00:30.023Z,27.60
2018-01-04T10:02:58.243Z,31.87
2018-01-04T10:05:25.704Z,26.60
2018-01-04T10:07:53.172Z,28.77
2018-01-04T10:10:20.617Z,37.33
2018-01-04T10:12:48.062Z,29.40
2018-01-04T10:15:15.530Z,31.70
2018-01-04T10:17:42.982Z,30.60
2018-01-04T10:20:10.436Z,33.57
2018-01-04T10:22:37.915Z,22.67
2018-01-04T10:25:05.362Z,27.27
2018-01-04T10:27:32.823Z,32.67
2018-01-04T10:30:00.278Z,28.20
2018-01-04T10:32:27.735Z,33.43
2018-01-04T10:34:55.214Z,25.40
2018-01-04T10:37:22.664Z,18.50
2018-01-04T10:39:50.110Z,28.87
2018-01-04T10:42:17.586Z,28.03
2018-01-04T10:44:45.039Z,25.03
2018-01-04T10:47:12.499Z,32.73
2018-01-04T10:49:39.971Z,30.43
2018-01-04T10:52:08.186Z,26.47
2018-01-04T10:54:35.650Z,24.33
2018-01-04T10:57:03.128Z,19.33
2018-01-04T10:59:30.574Z,22.53
2018-01-04T11:01:58.030Z,19.27
2018-01-04T11:04:25.611Z,21.80
2018-01-04T11:06:53.064Z,26.93
2018-01-04T11:09:20.524Z,25.03
2018-01-04T11:11:47.988Z,17.70
2018-01-04T11:14:15.450Z,17.03
2018-01-04T11:16:42.954Z,12.00
2018-01-04T11:19:10.426Z,18.83
2018-01-04T11:21:37.899Z,21.30
2018-01-04T11:24:05.364Z,12.27
2018-01-04T11:26:32.834Z,14.07
2018-01-04T11:29:01.062Z,17.17
2018-01-04T11:31:28.515Z,19.53
2018-01-04T11:33:55.970Z,21.53
2018-01-04T11:36:23.424Z,18.37
2018-01-04T11:38:50.904Z,13.63
2018-01-04T11:41:18.363Z,23.57
2018-01-04T11:43:45.819Z,17.87
2018-01-04T11:46:13.290Z,16.73
2018-01-04T11:48:40.793Z,16.77
2018-01-04T11:51:08.212Z,17.20
2018-01-04T11:53:35.675Z,16.20
2018-01-04T11:56:03.135Z,18.97
2018-01-04T11:58:30.619Z,13.30
2018-01-04T12:00:58.090Z,14.90
2018-01-04T12:03:25.542Z,19.97
2018-01-04T12:05:53.013Z,18.70
2018-01-04T12:08:20.495Z,20.03
2018-01-04T12:10:47.950Z,21.93
2018-01-04T12:13:15.432Z,24.93
2018-01-04T12:15:42.878Z,24.80
2018-01-04T12:18:10.339Z,13.37
2018-01-04T12:20:37.804Z,8.77
2018-01-04T12:23:06.033Z,12.00
2018-01-04T12:25:33.513Z,11.17
2018-01-04T12:28:00.983Z,15.20
2018-01-04T12:30:28.438Z,21.33
2018-01-04T12:32:55.894Z,20.13
2018-01-04T12:35:23.363Z,28.30
2018-01-04T12:37:51.613Z,16.97
2018-01-04T12:40:19.055Z,25.70
2018-01-04T12:42:46.531Z,17.63
2018-01-04T12:45:13.993Z,13.37
2018-01-04T12:47:41.444Z,14.90
2018-01-04T12:50:08.911Z,14.23
2018-01-04T12:52:36.358Z,11.00
2018-01-04T12:55:03.810Z,9.10
2018-01-04T12:57:31.269Z,9.47
2018-01-04T12:59:58.726Z,11.70
2018-01-04T13:02:26.203Z,10.97
2018-01-04T13:04:54.422Z,9.70
2018-01-04T13:07:21.878Z,9.43
2018-01-04T13:09:49.342Z,7.30
2018-01-04T13:12:16.790Z,13.60
2018-01-04T13:14:44.248Z,12.73
2018-01-04T13:17:11.711Z,12.20
2018-01-04T13:19:39.165Z,14.50
2018-01-04T13:22:06.623Z,16.73
2018-01-04T13:24:34.091Z,13.40
2018-01-04T13:27:01.560Z,14.27
2018-01-04T13:29:29.019Z,17.80
2018-01-04T13:31:56.487Z,20.70
2018-01-04T13:34:23.943Z,21.60
2018-01-04T13:36:51.410Z,16.57
2018-01-04T13:39:19.683Z,17.40
2018-01-04T13:41:47.918Z,13.97
2018-01-04T13:44:15.380Z,13.63
2018-01-04T13:46:42.842Z,13.87
2018-01-04T13:49:10.299Z,10.93
2018-01-04T13:51:37.770Z,13.37
2018-01-04T13:54:05.248Z,16.53
2018-01-04T13:56:33.503Z,15.40
2018-01-04T13:59:00.967Z,14.70
2018-01-04T14:01:28.426Z,13.73
2018-01-04T14:03:55.891Z,14.27
2018-01-04T14:06:24.134Z,14.20
2018-01-04T14:08:51.590Z,21.47
2018-01-04T14:11:19.048Z,19.60
2018-01-04T14:13:46.525Z,31.80
2018-01-04T14:16:13.987Z,21.70
2018-01-04T14:18:41.447Z,22.53
2018-01-04T14:21:08.907Z,21.63
2018-01-04T14:23:37.139Z,19.60
2018-01-04T14:26:04.607Z,21.10
2018-01-04T14:28:32.067Z,24.70
2018-01-04T14:30:59.524Z,25.23
2018-01-04T14:33:26.987Z,23.13
2018-01-04T14:35:54.442Z,25.23
2018-01-04T14:38:21.923Z,26.27
2018-01-04T14:40:50.147Z,22.83
2018-01-04T14:43:17.608Z,25.47
2018-01-04T14:45:45.074Z,27.40
2018-01-04T14:48:12.530Z,32.90
2018-01-04T14:50:39.986Z,34.83
2018-01-04T14:53:07.464Z,25.93
2018-01-04T14:55:34.917Z,40.03
2018-01-04T14:58:02.374Z,45.60
2018-01-04T15:00:29.842Z,49.33
2018-01-04T15:02:57.299Z,39.30
2018-01-04T15:05:24.776Z,42.90
2018-01-04T15:07:53.003Z,49.10
2018-01-04T15:10:20.483Z,53.90
2018-01-04T15:12:47.951Z,46.23
2018-01-04T15:15:16.175Z,64.80
2018-01-04T15:17:43.642Z,55.50
2018-01-04T15:20:11.116Z,72.17
2018-01-04T15:22:38.575Z,49.80
2018-01-04T15:25:06.047Z,52.07
2018-01-04T15:27:33.509Z,52.37
2018-01-04T15:30:01.742Z,51.47
2018-01-04T15:32:29.222Z,57.67
2018-01-04T15:34:56.687Z,54.40
2018-01-04T15:37:24.151Z,68.50
2018-01-04T15:39:51.648Z,70.57
2018-01-04T15:42:19.105Z,78.57
2018-01-04T15:44:46.567Z,66.83
2018-01-04T15:47:14.044Z,79.83
2018-01-04T15:49:41.524Z,87.97
2018-01-04T15:52:09.098Z,83.10
2018-01-04T15:54:36.563Z,77.83
2018-01-04T15:57:04.847Z,69.37
2018-01-04T15:59:32.308Z,78.43
2018-01-04T16:01:59.780Z,74.07
2018-01-04T16:04:27.243Z,81.00
2018-01-04T16:06:54.711Z,75.73
2018-01-04T16:09:22.196Z,79.00
2018-01-04T16:11:49.655Z,74.40
2018-01-04T16:14:17.915Z,90.23
2018-01-04T16:16:45.386Z,72.57
2018-01-04T16:19:12.853Z,90.93
2018-01-04T16:21:40.319Z,87.83
2018-01-04T16:24:08.559Z,96.63
2018-01-04T16:26:36.054Z,85.50
2018-01-04T16:29:03.515Z,83.87
2018-01-04T16:31:31.750Z,83.80
2018-01-04T16:33:59.215Z,99.77
2018-01-04T16:36:26.686Z,89.23
2018-01-04T16:38:54.142Z,76.50
2018-01-04T16:41:21.607Z,67.60
2018-01-04T16:43:49.851Z,84.00
2018-01-04T16:46:17.315Z,77.10
2018-01-04T16:48:44.810Z,82.27
2018-01-04T16:51:13.054Z,80.60
2018-01-04T16:53:40.551Z,100.90
2018-01-04T16:56:08.032Z,80.40
2018-01-04T16:58:35.527Z,104.67
2018-01-04T17:01:02.992Z,78.63
2018-01-04T17:03:30.455Z,83.20
2018-01-04T17:05:58.752Z,100.83
2018-01-04T17:08:26.195Z,77.10
2018-01-04T17:10:54.418Z,84.63
2018-01-04T17:13:22.668Z,102.67
2018-01-04T17:15:50.139Z,85.30
2018-01-04T17:18:17.599Z,86.77
2018-01-04T17:20:45.059Z,98.30
2018-01-04T17:23:12.534Z,87.20
2018-01-04T17:25:39.995Z,85.17
2018-01-04T17:28:07.455Z,90.07
2018-01-04T17:30:34.964Z,76.10
2018-01-04T17:33:03.168Z,84.40
2018-01-04T17:35:30.635Z,79.57
2018-01-04T17:37:58.116Z,92.90
2018-01-04T17:40:25.577Z,85.60
2018-01-04T17:42:53.054Z,81.27
2018-01-04T17:45:21.302Z,81.00
2018-01-04T17:47:48.754Z,69.87
2018-01-04T17:50:16.214Z,72.80
2018-01-04T17:52:43.687Z,82.73
2018-01-04T17:55:11.913Z,74.77
2018-01-04T17:57:39.379Z,70.13
2018-01-04T18:00:06.854Z,53.67
2018-01-04T18:02:34.315Z,41.00
2018-01-04T18:05:01.772Z,37.20
2018-01-04T18:07:29.243Z,44.47
2018-01-04T18:09:57.482Z,55.53
2018-01-04T18:12:24.955Z,54.87
2018-01-04T18:14:52.418Z,45.53
2018-01-04T18:17:19.879Z,45.47
2018-01-04T18:19:47.350Z,49.90
2018-01-04T18:22:15.599Z,50.87
2018-01-04T18:24:43.058Z,53.70
2018-01-04T18:27:10.530Z,34.80
2018-01-04T18:29:38.028Z,46.57
2018-01-04T18:32:05.538Z,38.40
2018-01-04T18:34:32.958Z,42.80
2018-01-04T18:37:00.408Z,31.97
2018-01-04T18:39:27.871Z,30.13
2018-01-04T18:41:55.340Z,25.03
2018-01-04T18:44:22.813Z,25.23
2018-01-04T18:46:50.283Z,33.70
2018-01-04T18:49:18.511Z,23.20
2018-01-04T18:51:45.976Z,15.33
2018-01-04T18:54:13.470Z,22.80
2018-01-04T18:56:40.929Z,28.10
2018-01-04T18:59:08.388Z,35.20
2018-01-04T19:01:35.854Z,26.67
2018-01-04T19:04:04.079Z,25.03
2018-01-04T19:06:31.545Z,15.70
2018-01-04T19:08:59.012Z,13.30
2018-01-04T19:11:26.484Z,16.70
2018-01-04T19:13:53.948Z,29.00
2018-01-04T19:16:22.162Z,20.90
2018-01-04T19:18:49.628Z,24.97
2018-01-04T19:21:17.095Z,29.00
2018-01-04T19:23:44.559Z,29.07
2018-01-04T19:26:12.018Z,21.80
2018-01-04T19:28:39.487Z,25.27
2018-01-04T19:31:07.011Z,13.07
2018-01-04T19:33:34.478Z,16.53
2018-01-04T19:36:01.930Z,16.93
2018-01-04T19:38:29.392Z,8.60
2018-01-04T19:40:56.845Z,13.97
2018-01-04T19:43:24.329Z,18.10
2018-01-04T19:45:51.818Z,8.07
2018-01-04T19:48:20.031Z,12.73
2018-01-04T19:50:47.512Z,10.90
2018-01-04T19:53:14.960Z,20.20
2018-01-04T19:55:42.406Z,9.60
2018-01-04T19:58:09.875Z,13.07
2018-01-04T20:00:37.335Z,14.70
2018-01-04T20:03:04.794Z,22.43
2018-01-04T20:05:32.297Z,10.73
2018-01-04T20:07:59.762Z,20.37
2018-01-04T20:10:27.208Z,14.90
2018-01-04T20:12:54.695Z,8.83
2018-01-04T20:15:22.166Z,19.20
2018-01-04T20:17:49.623Z,14.83
2018-01-04T20:20:17.091Z,6.53
2018-01-04T20:22:44.543Z,14.30
2018-01-04T20:25:12.023Z,9.80
2018-01-04T20:27:39.491Z,8.90
2018-01-04T20:30:07.772Z,9.77
2018-01-04T20:32:36.030Z,16.23
2018-01-04T20:35:03.542Z,9.40
2018-01-04T20:37:31.026Z,7.50
2018-01-04T20:39:58.500Z,11.93
2018-01-04T20:42:25.974Z,7.57
2018-01-04T20:44:54.182Z,8.13
2018-01-04T20:47:21.644Z,13.93
2018-01-04T20:49:49.111Z,18.10
2018-01-04T20:52:16.559Z,8.10
2018-01-04T20:54:44.023Z,15.90
2018-01-04T20:57:11.526Z,16.83
2018-01-04T20:59:39.738Z,12.00
2018-01-04T21:02:07.234Z,10.13
2018-01-04T21:04:34.697Z,12.90
2018-01-04T21:07:02.149Z,8.40
2018-01-04T21:09:29.638Z,13.70
2018-01-04T21:11:57.896Z,11.17
2018-01-04T21:14:25.354Z,14.07
2018-01-04T21:16:52.818Z,9.23
2018-01-04T21:19:21.039Z,8.03
2018-01-04T21:21:48.486Z,8.80
2018-01-04T21:24:15.974Z,9.33
2018-01-04T21:26:43.418Z,5.77
2018-01-04T21:29:10.879Z,8.70
2018-01-04T21:31:38.334Z,9.93
2018-01-04T21:34:05.793Z,17.13
2018-01-04T21:36:33.259Z,15.10
2018-01-04T21:39:01.687Z,10.90
2018-01-04T21:41:29.144Z,19.43
2018-01-04T21:43:56.616Z,12.27
2018-01-04T21:46:24.085Z,11.93
2018-01-04T21:48:51.542Z,10.27
2018-01-04T21:51:19.011Z,8.60
2018-01-04T21:53:46.467Z,9.93
2018-01-04T21:56:13.934Z,14.00
2018-01-04T21:58:41.387Z,15.27
2018-01-04T22:01:08.834Z,7.90
2018-01-04T22:03:36.303Z,17.20
2018-01-04T22:06:03.747Z,9.50
2018-01-04T22:08:31.207Z,14.73
2018-01-04T22:10:58.665Z,9.33
2018-01-04T22:13:26.888Z,13.60
2018-01-04T22:15:55.122Z,14.93
2018-01-04T22:18:22.646Z,7.50
2018-01-04T22:20:50.119Z,9.90
2018-01-04T22:23:17.617Z,17.97
2018-01-04T22:25:45.888Z,9.50
2018-01-04T22:28:13.470Z,6.60
2018-01-04T22:30:41.783Z,9.17
2018-01-04T22:33:09.967Z,11.37
2018-01-04T22:35:37.575Z,11.83
2018-01-04T22:38:05.889Z,5.53
2018-01-04T22:40:33.374Z,7.10
2018-01-04T22:43:00.866Z,13.83
2018-01-04T22:45:29.074Z,10.70
2018-01-04T22:47:56.526Z,15.10
2018-01-04T22:50:24.040Z,8.27
2018-01-04T22:52:51.576Z,15.97
2018-01-04T22:55:19.457Z,12.87
2018-01-04T22:57:46.961Z,9.10
2018-01-04T23:00:14.428Z,18.90
2018-01-04T23:02:41.900Z,15.90
2018-01-04T23:05:09.440Z,17.10
2018-01-04T23:07:37.011Z,26.20
2018-01-04T23:10:04.494Z,16.20
2018-01-04T23:12:32.024Z,12.60
2018-01-04T23:14:59.527Z,12.57
2018-01-04T23:17:27.020Z,9.33
2018-01-04T23:19:54.563Z,12.33
2018-01-04T23:22:22.820Z,17.40
2018-01-04T23:24:50.303Z,9.77
2018-01-04T23:27:17.768Z,12.23
2018-01-04T23:29:45.295Z,8.20
2018-01-04T23:32:12.951Z,17.13
2018-01-04T23:34:40.403Z,15.70
2018-01-04T23:37:07.879Z,14.30
2018-01-04T23:39:36.110Z,11.93
2018-01-04T23:42:03.576Z,16.83
2018-01-04T23:44:31.043Z,10.00
2018-01-04T23:46:58.502Z,15.30
2018-01-04T23:49:25.966Z,17.77
2018-01-04T23:51:53.471Z,21.50
2018-01-04T23:54:20.944Z,13.93
2018-01-04T23:56:48.450Z,20.13
2018-01-04T23:59:16.723Z,9.77
